Royal Romance — ZGCE4 — position and weather

sailwx.info

Track history (hours):
 
Tides and Currents Weather Stations Pressure Air Temp Water Temp Dewpoint Dewpoint Depression Visibility Wind Speed Wind Dir Waves Ship Positions

Royal Romance

Last reported at 2017-May-01 06:07 UTC. Time now 2017-Jun-29 10:54 UTC.
Position N 37°54' E 015°54'.
Warning: this ship's position is 59 days out of date.

Length 93 m; draft 3.9 m.

Type: Pleasure craft. MMSI: 319084100.

Date/timePositionNaut miles runAvg speedWind from/ knotsBaromVisibWave heightAir tempDewpointWater temp
2017-May-01 06:07N 37°54' E 015°54'312.2
2017-May-01 05:50N 37°54' E 015°50'411.9
2017-May-01 05:30N 37°54' E 015°44'611.9
2017-May-01 05:00N 37°58' E 015°39'713.2
2017-May-01 04:30N 38°04' E 015°36'815.1
2017-May-01 04:00N 38°12' E 015°36'612.5
2017-May-01 03:30N 38°17' E 015°40'612.2
2017-May-01 03:00N 38°22' E 015°36'612.3
2017-May-01 02:30N 38°26' E 015°30'612.3
2017-May-01 02:01N 38°31' E 015°25'612.6
2017-May-01 01:30N 38°36' E 015°20'612.6
2017-May-01 01:00N 38°40' E 015°14'612.7
2017-May-01 00:30N 38°45' E 015°08'712.6
2017-Apr-30 23:59N 38°49' E 015°02'612.4
2017-Apr-30 23:30N 38°53' E 014°56'612.2
2017-Apr-30 22:59N 38°57' E 014°50'30311.8
2017-Apr-29 21:17N 42°22' E 009°57'312.0
2017-Apr-29 21:00N 42°25' E 009°54'1412.0
2017-Apr-29 19:49N 42°38' E 009°46'612.4
2017-Apr-29 19:18N 42°44' E 009°43'412.2
2017-Apr-29 19:00N 42°47' E 009°41'611.5
2017-Apr-29 18:30N 42°53' E 009°39'612.4
2017-Apr-29 18:00N 42°59' E 009°36'612.5
2017-Apr-29 17:31N 43°04' E 009°32'612.4
2017-Apr-29 17:01N 43°08' E 009°25'612.6
2017-Apr-29 16:30N 43°10' E 009°17'612.4
2017-Apr-29 16:01N 43°12' E 009°09'612.4
2017-Apr-29 15:31N 43°14' E 009°01'612.6
2017-Apr-29 15:00N 43°17' E 008°53'1312.6
2017-Apr-29 14:00N 43°22' E 008°37'612.6
2017-Apr-29 13:30N 43°24' E 008°29'612.3
2017-Apr-29 13:01N 43°27' E 008°21'612.8
2017-Apr-29 12:31N 43°30' E 008°13'1013.2
2017-Apr-29 11:44N 43°33' E 008°00'313.1
2017-Apr-29 11:31N 43°34' E 007°56'712.8
2017-Apr-29 10:59N 43°37' E 007°48'612.5
2017-Apr-29 10:30N 43°40' E 007°40'612.3
2017-Apr-29 09:59N 43°42' E 007°32'  
2017-Apr-22 00:00N 43°44' E 007°26'0 0.0
2017-Apr-21 23:30N 43°44' E 007°26'0 0.0
2017-Apr-21 23:00N 43°44' E 007°26'0 0.0
2017-Apr-21 22:12N 43°44' E 007°26'  
Track history (hours):
 
Tides and Currents Weather Stations Pressure Air Temp Water Temp Dewpoint Dewpoint Depression Visibility Wind Speed Wind Dir Waves Ship Positions

Royal Romance

Last reported at 2017-May-01 06:07 UTC. Time now 2017-Jun-29 10:54 UTC.
Position N 37°54' E 015°54'.
Warning: this ship's position is 59 days out of date.

Length 93 m; draft 3.9 m.

Type: Pleasure craft. MMSI: 319084100.

Date/timePositionNaut miles runAvg speedWind from/ knotsBaromVisibWave heightAir tempDewpointWater temp
2017-May-01 06:07N 37°54' E 015°54'312.2
2017-May-01 05:50N 37°54' E 015°50'411.9
2017-May-01 05:30N 37°54' E 015°44'611.9
2017-May-01 05:00N 37°58' E 015°39'713.2
2017-May-01 04:30N 38°04' E 015°36'815.1
2017-May-01 04:00N 38°12' E 015°36'612.5
2017-May-01 03:30N 38°17' E 015°40'612.2
2017-May-01 03:00N 38°22' E 015°36'612.3
2017-May-01 02:30N 38°26' E 015°30'612.3
2017-May-01 02:01N 38°31' E 015°25'612.6
2017-May-01 01:30N 38°36' E 015°20'612.6
2017-May-01 01:00N 38°40' E 015°14'612.7
2017-May-01 00:30N 38°45' E 015°08'712.6
2017-Apr-30 23:59N 38°49' E 015°02'612.4
2017-Apr-30 23:30N 38°53' E 014°56'612.2
2017-Apr-30 22:59N 38°57' E 014°50'30311.8
2017-Apr-29 21:17N 42°22' E 009°57'312.0
2017-Apr-29 21:00N 42°25' E 009°54'1412.0
2017-Apr-29 19:49N 42°38' E 009°46'612.4
2017-Apr-29 19:18N 42°44' E 009°43'412.2
2017-Apr-29 19:00N 42°47' E 009°41'611.5
2017-Apr-29 18:30N 42°53' E 009°39'612.4
2017-Apr-29 18:00N 42°59' E 009°36'612.5
2017-Apr-29 17:31N 43°04' E 009°32'612.4
2017-Apr-29 17:01N 43°08' E 009°25'612.6
2017-Apr-29 16:30N 43°10' E 009°17'612.4
2017-Apr-29 16:01N 43°12' E 009°09'612.4
2017-Apr-29 15:31N 43°14' E 009°01'612.6
2017-Apr-29 15:00N 43°17' E 008°53'1312.6
2017-Apr-29 14:00N 43°22' E 008°37'612.6
2017-Apr-29 13:30N 43°24' E 008°29'612.3
2017-Apr-29 13:01N 43°27' E 008°21'612.8
2017-Apr-29 12:31N 43°30' E 008°13'1013.2
2017-Apr-29 11:44N 43°33' E 008°00'313.1
2017-Apr-29 11:31N 43°34' E 007°56'712.8
2017-Apr-29 10:59N 43°37' E 007°48'612.5
2017-Apr-29 10:30N 43°40' E 007°40'612.3
2017-Apr-29 09:59N 43°42' E 007°32'  
2017-Apr-22 00:00N 43°44' E 007°26'0 0.0
2017-Apr-21 23:30N 43°44' E 007°26'0 0.0
2017-Apr-21 23:00N 43°44' E 007°26'0 0.0
2017-Apr-21 22:12N 43°44' E 007°26'  

Dump ship's entire track history